sensor_id;sensor_type;location;lat;lon;timestamp;pressure;altitude;pressure_sealevel;temperature;humidity
7966;BME280;4028;43.272;26.932;2023-04-20T00:00:28;98651.47;;;11.68;100.00
7966;BME280;4028;43.272;26.932;2023-04-20T00:02:53;98652.97;;;11.62;100.00
7966;BME280;4028;43.272;26.932;2023-04-20T00:05:19;98624.78;;;11.53;100.00
7966;BME280;4028;43.272;26.932;2023-04-20T00:07:44;98648.00;;;11.67;100.00
7966;BME280;4028;43.272;26.932;2023-04-20T00:10:10;98620.13;;;11.55;100.00
7966;BME280;4028;43.272;26.932;2023-04-20T00:12:36;98605.38;;;11.36;100.00
7966;BME280;4028;43.272;26.932;2023-04-20T00:15:01;98635.88;;;11.57;100.00
7966;BME280;4028;43.272;26.932;2023-04-20T00:17:27;98620.63;;;11.42;100.00
7966;BME280;4028;43.272;26.932;2023-04-20T00:19:52;98637.69;;;11.56;100.00
7966;BME280;4028;43.272;26.932;2023-04-20T00:22:18;98628.59;;;11.59;100.00
7966;BME280;4028;43.272;26.932;2023-04-20T00:24:43;98631.25;;;11.59;100.00
7966;BME280;4028;43.272;26.932;2023-04-20T00:27:09;98600.72;;;11.38;100.00
7966;BME280;4028;43.272;26.932;2023-04-20T00:29:34;98625.47;;;11.63;100.00
7966;BME280;4028;43.272;26.932;2023-04-20T00:32:00;98622.13;;;11.53;100.00
7966;BME280;4028;43.272;26.932;2023-04-20T00:34:25;98621.00;;;11.64;100.00
7966;BME280;4028;43.272;26.932;2023-04-20T00:36:50;98622.13;;;11.53;100.00
7966;BME280;4028;43.272;26.932;2023-04-20T00:39:16;98618.78;;;11.43;100.00
7966;BME280;4028;43.272;26.932;2023-04-20T00:41:41;98620.97;;;11.48;100.00
7966;BME280;4028;43.272;26.932;2023-04-20T00:44:07;98608.38;;;11.41;100.00
7966;BME280;4028;43.272;26.932;2023-04-20T00:46:35;98615.84;;;11.54;100.00
7966;BME280;4028;43.272;26.932;2023-04-20T00:49:01;98606.06;;;11.47;100.00
7966;BME280;4028;43.272;26.932;2023-04-20T00:51:28;98610.03;;;11.42;100.00
7966;BME280;4028;43.272;26.932;2023-04-20T00:53:53;98611.50;;;11.37;100.00
7966;BME280;4028;43.272;26.932;2023-04-20T00:56:19;98611.19;;;11.48;100.00
7966;BME280;4028;43.272;26.932;2023-04-20T00:58:45;98597.09;;;11.39;100.00
7966;BME280;4028;43.272;26.932;2023-04-20T01:01:11;98612.19;;;11.55;100.00
7966;BME280;4028;43.272;26.932;2023-04-20T01:03:40;98617.66;;;11.54;100.00
7966;BME280;4028;43.272;26.932;2023-04-20T01:06:07;98593.28;;;11.34;100.00
7966;BME280;4028;43.272;26.932;2023-04-20T01:08:32;98612.16;;;11.39;100.00
7966;BME280;4028;43.272;26.932;2023-04-20T01:10:58;98603.06;;;11.41;100.00
7966;BME280;4028;43.272;26.932;2023-04-20T01:13:24;98611.50;;;11.37;100.00
7966;BME280;4028;43.272;26.932;2023-04-20T01:15:49;98600.25;;;11.43;100.00
7966;BME280;4028;43.272;26.932;2023-04-20T01:18:16;98601.69;;;11.29;100.00
7966;BME280;4028;43.272;26.932;2023-04-20T01:20:44;98606.06;;;11.47;100.00
7966;BME280;4028;43.272;26.932;2023-04-20T01:23:11;98605.03;;;11.31;100.00
7966;BME280;4028;43.272;26.932;2023-04-20T01:25:37;98600.88;;;11.29;100.00
7966;BME280;4028;43.272;26.932;2023-04-20T01:28:02;98609.00;;;11.35;100.00
7966;BME280;4028;43.272;26.932;2023-04-20T01:30:29;98595.41;;;11.30;100.00
7966;BME280;4028;43.272;26.932;2023-04-20T01:32:54;98607.03;;;11.37;100.00
7966;BME280;4028;43.272;26.932;2023-04-20T01:35:20;98612.81;;;11.41;100.00
7966;BME280;4028;43.272;26.932;2023-04-20T01:37:45;98605.56;;;11.43;100.00
7966;BME280;4028;43.272;26.932;2023-04-20T01:40:12;98598.75;;;11.40;100.00
7966;BME280;4028;43.272;26.932;2023-04-20T01:42:38;98601.25;;;11.42;100.00
7966;BME280;4028;43.272;26.932;2023-04-20T01:45:07;98602.56;;;11.38;100.00
7966;BME280;4028;43.272;26.932;2023-04-20T01:47:33;98596.09;;;11.40;100.00
7966;BME280;4028;43.272;26.932;2023-04-20T01:49:58;98573.06;;;11.41;100.00
7966;BME280;4028;43.272;26.932;2023-04-20T01:52:24;98577.41;;;11.50;100.00
7966;BME280;4028;43.272;26.932;2023-04-20T01:54:50;98573.75;;;11.43;100.00
7966;BME280;4028;43.272;26.932;2023-04-20T01:57:15;98586.66;;;11.38;100.00
7966;BME280;4028;43.272;26.932;2023-04-20T01:59:41;98570.59;;;11.39;100.00
7966;BME280;4028;43.272;26.932;2023-04-20T02:02:06;98586.31;;;11.33;100.00
7966;BME280;4028;43.272;26.932;2023-04-20T02:04:32;98581.00;;;11.25;100.00
7966;BME280;4028;43.272;26.932;2023-04-20T02:06:57;98577.53;;;11.24;100.00
7966;BME280;4028;43.272;26.932;2023-04-20T02:09:23;98599.06;;;11.29;100.00
7966;BME280;4028;43.272;26.932;2023-04-20T02:11:48;98589.63;;;11.35;100.00
7966;BME280;4028;43.272;26.932;2023-04-20T02:14:14;98586.97;;;11.27;100.00
7966;BME280;4028;43.272;26.932;2023-04-20T02:16:40;98579.16;;;11.25;100.00
7966;BME280;4028;43.272;26.932;2023-04-20T02:19:06;98586.28;;;11.25;100.00
7966;BME280;4028;43.272;26.932;2023-04-20T02:21:33;98577.00;;;11.20;100.00
7966;BME280;4028;43.272;26.932;2023-04-20T02:23:58;98579.69;;;11.29;100.00
7966;BME280;4028;43.272;26.932;2023-04-20T02:26:24;98585.66;;;11.39;100.00
7966;BME280;4028;43.272;26.932;2023-04-20T02:28:50;98582.84;;;11.40;100.00
7966;BME280;4028;43.272;26.932;2023-04-20T02:31:15;98588.84;;;11.42;100.00
7966;BME280;4028;43.272;26.932;2023-04-20T02:33:40;98582.50;;;11.35;100.00
7966;BME280;4028;43.272;26.932;2023-04-20T02:36:06;98591.28;;;11.36;100.00
7966;BME280;4028;43.272;26.932;2023-04-20T02:38:32;98579.88;;;11.43;100.00
7966;BME280;4028;43.272;26.932;2023-04-20T02:40:57;98577.41;;;11.42;100.00
7966;BME280;4028;43.272;26.932;2023-04-20T02:43:23;98573.38;;;11.30;100.00
7966;BME280;4028;43.272;26.932;2023-04-20T02:45:48;98567.63;;;11.26;100.00
7966;BME280;4028;43.272;26.932;2023-04-20T02:48:14;98567.16;;;11.47;100.00
7966;BME280;4028;43.272;26.932;2023-04-20T02:50:41;98566.00;;;11.41;100.00
7966;BME280;4028;43.272;26.932;2023-04-20T02:53:06;98555.53;;;11.40;100.00
7966;BME280;4028;43.272;26.932;2023-04-20T02:55:32;98556.84;;;11.28;100.00
7966;BME280;4028;43.272;26.932;2023-04-20T02:57:57;98562.81;;;11.22;100.00
7966;BME280;4028;43.272;26.932;2023-04-20T03:00:23;98549.53;;;11.13;100.00
7966;BME280;4028;43.272;26.932;2023-04-20T03:02:48;98547.00;;;11.04;100.00
7966;BME280;4028;43.272;26.932;2023-04-20T03:05:14;98557.94;;;11.09;100.00
7966;BME280;4028;43.272;26.932;2023-04-20T03:07:39;98547.97;;;10.94;100.00
7966;BME280;4028;43.272;26.932;2023-04-20T03:10:05;98561.69;;;10.90;100.00
7966;BME280;4028;43.272;26.932;2023-04-20T03:12:31;98578.38;;;10.82;100.00
7966;BME280;4028;43.272;26.932;2023-04-20T03:14:57;98569.84;;;10.97;100.00
7966;BME280;4028;43.272;26.932;2023-04-20T03:17:22;98576.25;;;10.94;100.00
7966;BME280;4028;43.272;26.932;2023-04-20T03:19:48;98584.69;;;10.89;100.00
7966;BME280;4028;43.272;26.932;2023-04-20T03:22:13;98574.56;;;10.85;100.00
7966;BME280;4028;43.272;26.932;2023-04-20T03:24:39;98576.56;;;10.83;100.00
7966;BME280;4028;43.272;26.932;2023-04-20T03:27:05;98576.72;;;10.81;100.00
7966;BME280;4028;43.272;26.932;2023-04-20T03:29:30;98572.72;;;10.77;100.00
7966;BME280;4028;43.272;26.932;2023-04-20T03:31:55;98581.19;;;10.81;100.00
7966;BME280;4028;43.272;26.932;2023-04-20T03:34:21;98581.38;;;10.87;100.00
7966;BME280;4028;43.272;26.932;2023-04-20T03:36:46;98572.78;;;10.85;100.00
7966;BME280;4028;43.272;26.932;2023-04-20T03:39:12;98571.44;;;10.81;100.00
7966;BME280;4028;43.272;26.932;2023-04-20T03:41:38;98572.22;;;10.74;100.00
7966;BME280;4028;43.272;26.932;2023-04-20T03:44:03;98570.75;;;10.79;100.00
7966;BME280;4028;43.272;26.932;2023-04-20T03:46:29;98569.22;;;10.68;100.00
7966;BME280;4028;43.272;26.932;2023-04-20T03:48:54;98573.38;;;10.71;100.00
7966;BME280;4028;43.272;26.932;2023-04-20T03:51:20;98558.78;;;10.67;100.00
7966;BME280;4028;43.272;26.932;2023-04-20T03:53:45;98573.38;;;10.71;100.00
7966;BME280;4028;43.272;26.932;2023-04-20T03:56:10;98547.56;;;10.73;100.00
7966;BME280;4028;43.272;26.932;2023-04-20T03:58:36;98573.31;;;11.05;100.00
7966;BME280;4028;43.272;26.932;2023-04-20T04:01:06;98573.28;;;11.56;100.00
7966;BME280;4028;43.272;26.932;2023-04-20T04:03:35;98573.16;;;12.14;100.00
7966;BME280;4028;43.272;26.932;2023-04-20T04:06:02;98564.91;;;12.65;100.00
7966;BME280;4028;43.272;26.932;2023-04-20T04:08:27;98569.31;;;13.20;100.00
7966;BME280;4028;43.272;26.932;2023-04-20T04:10:54;98553.72;;;13.71;100.00
7966;BME280;4028;43.272;26.932;2023-04-20T04:13:19;98544.41;;;14.27;100.00
7966;BME280;4028;43.272;26.932;2023-04-20T04:15:45;98556.19;;;14.63;100.00
7966;BME280;4028;43.272;26.932;2023-04-20T04:18:10;98564.03;;;14.26;100.00
7966;BME280;4028;43.272;26.932;2023-04-20T04:20:36;98565.47;;;13.99;100.00
7966;BME280;4028;43.272;26.932;2023-04-20T04:23:01;98558.59;;;13.67;100.00
7966;BME280;4028;43.272;26.932;2023-04-20T04:25:27;98569.19;;;13.13;100.00
7966;BME280;4028;43.272;26.932;2023-04-20T04:27:52;98574.78;;;12.79;100.00
7966;BME280;4028;43.272;26.932;2023-04-20T04:30:18;98570.25;;;12.48;100.00
7966;BME280;4028;43.272;26.932;2023-04-20T04:32:44;98585.56;;;12.30;100.00
7966;BME280;4028;43.272;26.932;2023-04-20T04:35:11;98570.66;;;12.05;100.00
7966;BME280;4028;43.272;26.932;2023-04-20T04:37:36;98588.88;;;11.91;100.00
7966;BME280;4028;43.272;26.932;2023-04-20T04:40:02;98598.84;;;11.89;100.00
7966;BME280;4028;43.272;26.932;2023-04-20T04:42:32;98599.34;;;11.85;100.00
7966;BME280;4028;43.272;26.932;2023-04-20T04:44:58;98604.97;;;11.82;100.00
7966;BME280;4028;43.272;26.932;2023-04-20T04:47:26;98604.75;;;11.75;100.00
7966;BME280;4028;43.272;26.932;2023-04-20T04:49:54;98597.13;;;11.56;100.00
7966;BME280;4028;43.272;26.932;2023-04-20T04:52:19;98602.41;;;11.56;100.00
7966;BME280;4028;43.272;26.932;2023-04-20T04:54:45;98608.72;;;11.55;100.00
7966;BME280;4028;43.272;26.932;2023-04-20T04:57:11;98580.53;;;11.37;100.00
7966;BME280;4028;43.272;26.932;2023-04-20T04:59:36;98612.03;;;11.57;100.00
7966;BME280;4028;43.272;26.932;2023-04-20T05:02:02;98585.19;;;11.43;100.00
7966;BME280;4028;43.272;26.932;2023-04-20T05:04:27;98606.41;;;11.60;100.00
7966;BME280;4028;43.272;26.932;2023-04-20T05:06:53;98613.19;;;11.54;100.00
7966;BME280;4028;43.272;26.932;2023-04-20T05:09:18;98614.34;;;11.60;100.00
7966;BME280;4028;43.272;26.932;2023-04-20T05:11:44;98618.00;;;11.75;100.00
7966;BME280;4028;43.272;26.932;2023-04-20T05:14:09;98615.84;;;11.70;100.00
7966;BME280;4028;43.272;26.932;2023-04-20T05:16:35;98598.13;;;11.55;100.00
7966;BME280;4028;43.272;26.932;2023-04-20T05:19:00;98611.88;;;11.66;100.00
7966;BME280;4028;43.272;26.932;2023-04-20T05:21:26;98612.06;;;11.73;100.00
7966;BME280;4028;43.272;26.932;2023-04-20T05:23:51;98578.75;;;11.54;100.00
7966;BME280;4028;43.272;26.932;2023-04-20T05:26:17;98600.94;;;11.69;100.00
7966;BME280;4028;43.272;26.932;2023-04-20T05:28:42;98605.63;;;11.84;100.00
7966;BME280;4028;43.272;26.932;2023-04-20T05:31:07;98618.38;;;11.72;100.00
7966;BME280;4028;43.272;26.932;2023-04-20T05:33:33;98603.94;;;11.58;100.00
7966;BME280;4028;43.272;26.932;2023-04-20T05:35:58;98614.69;;;11.81;100.00
7966;BME280;4028;43.272;26.932;2023-04-20T05:38:24;98614.06;;;11.79;100.00
7966;BME280;4028;43.272;26.932;2023-04-20T05:40:50;98623.84;;;11.87;100.00
7966;BME280;4028;43.272;26.932;2023-04-20T05:43:16;98617.91;;;12.09;100.00
7966;BME280;4028;43.272;26.932;2023-04-20T05:45:44;98627.81;;;12.32;100.00
7966;BME280;4028;43.272;26.932;2023-04-20T05:48:09;98632.47;;;12.54;100.00
7966;BME280;4028;43.272;26.932;2023-04-20T05:50:35;98620.84;;;13.02;100.00
7966;BME280;4028;43.272;26.932;2023-04-20T05:53:00;98618.59;;;13.31;100.00
7966;BME280;4028;43.272;26.932;2023-04-20T05:55:26;98617.09;;;13.36;100.00
7966;BME280;4028;43.272;26.932;2023-04-20T05:57:51;98615.81;;;13.24;100.00
7966;BME280;4028;43.272;26.932;2023-04-20T06:00:17;98617.59;;;12.84;100.00
7966;BME280;4028;43.272;26.932;2023-04-20T06:02:43;98629.00;;;13.01;100.00
7966;BME280;4028;43.272;26.932;2023-04-20T06:05:09;98636.28;;;12.99;100.00
7966;BME280;4028;43.272;26.932;2023-04-20T06:07:35;98640.66;;;12.92;100.00
7966;BME280;4028;43.272;26.932;2023-04-20T06:10:01;98632.03;;;12.90;100.00
7966;BME280;4028;43.272;26.932;2023-04-20T06:12:27;98640.84;;;12.82;100.00
7966;BME280;4028;43.272;26.932;2023-04-20T06:14:55;98607.09;;;12.35;100.00
7966;BME280;4028;43.272;26.932;2023-04-20T06:17:20;98651.53;;;12.49;100.00
7966;BME280;4028;43.272;26.932;2023-04-20T06:19:45;98646.91;;;12.27;100.00
7966;BME280;4028;43.272;26.932;2023-04-20T06:22:12;98650.88;;;12.31;100.00
7966;BME280;4028;43.272;26.932;2023-04-20T06:24:37;98647.91;;;12.26;100.00
7966;BME280;4028;43.272;26.932;2023-04-20T06:27:03;98649.91;;;12.24;100.00
7966;BME280;4028;43.272;26.932;2023-04-20T06:29:29;98650.38;;;12.19;100.00
7966;BME280;4028;43.272;26.932;2023-04-20T06:31:54;98660.50;;;12.24;100.00
7966;BME280;4028;43.272;26.932;2023-04-20T06:34:20;98645.59;;;12.15;100.00
7966;BME280;4028;43.272;26.932;2023-04-20T06:36:45;98654.00;;;12.02;100.00
7966;BME280;4028;43.272;26.932;2023-04-20T06:39:11;98666.13;;;12.05;100.00
7966;BME280;4028;43.272;26.932;2023-04-20T06:41:37;98657.50;;;12.11;100.00
7966;BME280;4028;43.272;26.932;2023-04-20T06:44:03;98663.78;;;12.02;100.00
7966;BME280;4028;43.272;26.932;2023-04-20T06:46:29;98647.38;;;11.90;100.00
7966;BME280;4028;43.272;26.932;2023-04-20T06:48:55;98622.97;;;11.70;100.00
7966;BME280;4028;43.272;26.932;2023-04-20T06:51:21;98660.66;;;11.90;100.00
7966;BME280;4028;43.272;26.932;2023-04-20T06:53:46;98662.28;;;11.91;100.00
7966;BME280;4028;43.272;26.932;2023-04-20T06:56:12;98636.41;;;11.77;100.00
7966;BME280;4028;43.272;26.932;2023-04-20T06:58:37;98672.72;;;11.92;100.00
7966;BME280;4028;43.272;26.932;2023-04-20T07:01:03;98671.91;;;11.84;100.00
7966;BME280;4028;43.272;26.932;2023-04-20T07:03:29;98680.03;;;11.90;100.00
7966;BME280;4028;43.272;26.932;2023-04-20T07:05:55;98682.03;;;11.96;100.00
7966;BME280;4028;43.272;26.932;2023-04-20T07:08:20;98678.22;;;11.99;100.00
7966;BME280;4028;43.272;26.932;2023-04-20T07:10:46;98668.78;;;12.05;100.00
7966;BME280;4028;43.272;26.932;2023-04-20T07:13:11;98677.22;;;12.16;100.00
7966;BME280;4028;43.272;26.932;2023-04-20T07:15:37;98669.28;;;12.16;100.00
7966;BME280;4028;43.272;26.932;2023-04-20T07:18:02;98671.59;;;12.19;100.00
7966;BME280;4028;43.272;26.932;2023-04-20T07:20:28;98679.03;;;12.08;100.00
7966;BME280;4028;43.272;26.932;2023-04-20T07:22:53;98672.09;;;12.15;100.00
7966;BME280;4028;43.272;26.932;2023-04-20T07:25:19;98674.09;;;12.05;100.00
7966;BME280;4028;43.272;26.932;2023-04-20T07:27:45;98676.91;;;12.19;100.00
7966;BME280;4028;43.272;26.932;2023-04-20T07:30:10;98667.97;;;12.04;100.00
7966;BME280;4028;43.272;26.932;2023-04-20T07:32:37;98683.03;;;12.28;100.00
7966;BME280;4028;43.272;26.932;2023-04-20T07:35:03;98682.56;;;12.25;100.00
7966;BME280;4028;43.272;26.932;2023-04-20T07:37:29;98655.19;;;12.08;100.00
7966;BME280;4028;43.272;26.932;2023-04-20T07:39:56;98680.03;;;12.47;100.00
7966;BME280;4028;43.272;26.932;2023-04-20T07:42:22;98684.50;;;12.63;100.00
7966;BME280;4028;43.272;26.932;2023-04-20T07:44:47;98684.31;;;12.73;100.00
7966;BME280;4028;43.272;26.932;2023-04-20T07:47:13;98676.84;;;12.85;100.00
7966;BME280;4028;43.272;26.932;2023-04-20T07:49:39;98686.47;;;12.78;100.00
7966;BME280;4028;43.272;26.932;2023-04-20T07:52:05;98688.63;;;12.82;100.00
7966;BME280;4028;43.272;26.932;2023-04-20T07:54:31;98678.78;;;12.99;100.00
7966;BME280;4028;43.272;26.932;2023-04-20T07:56:57;98678.31;;;12.95;100.00
7966;BME280;4028;43.272;26.932;2023-04-20T07:59:23;98682.06;;;13.09;100.00
7966;BME280;4028;43.272;26.932;2023-04-20T08:01:48;98686.06;;;13.21;100.00
7966;BME280;4028;43.272;26.932;2023-04-20T08:04:15;98687.22;;;13.27;100.00
7966;BME280;4028;43.272;26.932;2023-04-20T08:06:40;98684.66;;;13.42;100.00
7966;BME280;4028;43.272;26.932;2023-04-20T08:09:06;98690.63;;;13.44;100.00
7966;BME280;4028;43.272;26.932;2023-04-20T08:11:32;98679.53;;;13.32;100.00
7966;BME280;4028;43.272;26.932;2023-04-20T08:13:57;98694.16;;;13.36;100.00
7966;BME280;4028;43.272;26.932;2023-04-20T08:16:23;98690.44;;;13.45;100.00
7966;BME280;4028;43.272;26.932;2023-04-20T08:18:48;98686.13;;;13.44;100.00
7966;BME280;4028;43.272;26.932;2023-04-20T08:21:14;98689.47;;;13.46;100.00
7966;BME280;4028;43.272;26.932;2023-04-20T08:23:39;98683.84;;;13.41;100.00
7966;BME280;4028;43.272;26.932;2023-04-20T08:26:05;98682.16;;;13.40;100.00
7966;BME280;4028;43.272;26.932;2023-04-20T08:28:30;98684.53;;;13.19;100.00
7966;BME280;4028;43.272;26.932;2023-04-20T08:30:56;98694.88;;;13.22;100.00
7966;BME280;4028;43.272;26.932;2023-04-20T08:33:21;98696.13;;;13.34;100.00
7966;BME280;4028;43.272;26.932;2023-04-20T08:35:49;98694.22;;;13.51;100.00
7966;BME280;4028;43.272;26.932;2023-04-20T08:38:16;98694.22;;;13.51;100.00
7966;BME280;4028;43.272;26.932;2023-04-20T08:40:42;98702.03;;;13.52;100.00
7966;BME280;4028;43.272;26.932;2023-04-20T08:43:08;98664.91;;;13.36;100.00
7966;BME280;4028;43.272;26.932;2023-04-20T08:45:33;98695.09;;;13.51;100.00
7966;BME280;4028;43.272;26.932;2023-04-20T08:48:04;98700.91;;;13.47;100.00
7966;BME280;4028;43.272;26.932;2023-04-20T08:50:30;98701.84;;;13.62;100.00
7966;BME280;4028;43.272;26.932;2023-04-20T08:52:56;98702.66;;;13.63;100.00
7966;BME280;4028;43.272;26.932;2023-04-20T08:55:22;98712.72;;;13.75;100.00
7966;BME280;4028;43.272;26.932;2023-04-20T08:57:47;98704.63;;;13.69;100.00
7966;BME280;4028;43.272;26.932;2023-04-20T09:00:16;98693.28;;;13.75;100.00
7966;BME280;4028;43.272;26.932;2023-04-20T09:02:52;98700.41;;;13.83;100.00
7966;BME280;4028;43.272;26.932;2023-04-20T09:05:28;98696.84;;;13.90;100.00
7966;BME280;4028;43.272;26.932;2023-04-20T09:07:57;98694.88;;;13.84;100.00
7966;BME280;4028;43.272;26.932;2023-04-20T09:10:23;98704.00;;;13.90;100.00
7966;BME280;4028;43.272;26.932;2023-04-20T09:12:49;98701.63;;;13.95;100.00
7966;BME280;4028;43.272;26.932;2023-04-20T09:15:31;98696.50;;;13.93;100.00
7966;BME280;4028;43.272;26.932;2023-04-20T09:17:57;98709.69;;;14.10;100.00
7966;BME280;4028;43.272;26.932;2023-04-20T09:20:33;98701.75;;;14.01;100.00
7966;BME280;4028;43.272;26.932;2023-04-20T09:23:19;98703.78;;;13.99;100.00
7966;BME280;4028;43.272;26.932;2023-04-20T09:25:50;98709.81;;;13.93;100.00
7966;BME280;4028;43.272;26.932;2023-04-20T09:28:20;98706.91;;;14.03;100.00
7966;BME280;4028;43.272;26.932;2023-04-20T09:30:47;98707.28;;;13.92;100.00
7966;BME280;4028;43.272;26.932;2023-04-20T09:33:13;98693.69;;;13.87;100.00
7966;BME280;4028;43.272;26.932;2023-04-20T09:35:42;98696.13;;;13.73;100.00
7966;BME280;4028;43.272;26.932;2023-04-20T09:38:09;98706.47;;;13.91;100.00
7966;BME280;4028;43.272;26.932;2023-04-20T09:40:35;98707.44;;;13.98;100.00
7966;BME280;4028;43.272;26.932;2023-04-20T09:43:05;98703.88;;;14.06;100.00
7966;BME280;4028;43.272;26.932;2023-04-20T09:45:32;98700.50;;;13.89;100.00
7966;BME280;4028;43.272;26.932;2023-04-20T09:47:58;98703.16;;;13.89;100.00
7966;BME280;4028;43.272;26.932;2023-04-20T09:50:24;98696.09;;;14.04;100.00
7966;BME280;4028;43.272;26.932;2023-04-20T09:52:50;98698.16;;;14.17;100.00
7966;BME280;4028;43.272;26.932;2023-04-20T09:55:16;98695.38;;;14.34;100.00
7966;BME280;4028;43.272;26.932;2023-04-20T09:57:43;98695.72;;;14.53;100.00
7966;BME280;4028;43.272;26.932;2023-04-20T10:00:09;98699.88;;;14.56;100.00
7966;BME280;4028;43.272;26.932;2023-04-20T10:02:37;98700.34;;;14.60;100.00
7966;BME280;4028;43.272;26.932;2023-04-20T10:05:03;98695.78;;;14.83;100.00
7966;BME280;4028;43.272;26.932;2023-04-20T10:07:30;98689.09;;;15.02;100.00
7966;BME280;4028;43.272;26.932;2023-04-20T10:12:30;98682.13;;;15.30;100.00
7966;BME280;4028;43.272;26.932;2023-04-20T10:14:55;98685.03;;;15.50;100.00
7966;BME280;4028;43.272;26.932;2023-04-20T10:17:29;98668.31;;;15.42;100.00
7966;BME280;4028;43.272;26.932;2023-04-20T10:19:55;98676.94;;;15.44;100.00
7966;BME280;4028;43.272;26.932;2023-04-20T10:22:31;98673.44;;;15.73;100.00
7966;BME280;4028;43.272;26.932;2023-04-20T10:25:01;98679.09;;;15.84;100.00
7966;BME280;4028;43.272;26.932;2023-04-20T10:27:27;98670.94;;;16.07;100.00
7966;BME280;4028;43.272;26.932;2023-04-20T10:29:53;98670.53;;;16.10;100.00
7966;BME280;4028;43.272;26.932;2023-04-20T10:34:47;98676.69;;;15.90;100.00
7966;BME280;4028;43.272;26.932;2023-04-20T10:37:13;98683.44;;;15.71;100.00
7966;BME280;4028;43.272;26.932;2023-04-20T10:39:45;98682.13;;;15.30;100.00
7966;BME280;4028;43.272;26.932;2023-04-20T10:42:12;98669.78;;;15.29;100.00
7966;BME280;4028;43.272;26.932;2023-04-20T10:47:13;98688.94;;;15.84;100.00
7966;BME280;4028;43.272;26.932;2023-04-20T10:49:39;98690.59;;;15.85;100.00
7966;BME280;4028;43.272;26.932;2023-04-20T10:52:05;98674.97;;;15.82;100.00
7966;BME280;4028;43.272;26.932;2023-04-20T10:54:37;98691.72;;;15.76;100.00
7966;BME280;4028;43.272;26.932;2023-04-20T10:57:04;98686.03;;;15.64;100.00
7966;BME280;4028;43.272;26.932;2023-04-20T10:59:30;98670.25;;;15.33;100.00
7966;BME280;4028;43.272;26.932;2023-04-20T11:01:55;98687.34;;;15.39;100.00
7966;BME280;4028;43.272;26.932;2023-04-20T11:04:30;98688.63;;;15.43;100.00
7966;BME280;4028;43.272;26.932;2023-04-20T11:07:06;98694.97;;;15.42;100.00
7966;BME280;4028;43.272;26.932;2023-04-20T11:09:33;98693.00;;;15.50;100.00
7966;BME280;4028;43.272;26.932;2023-04-20T11:12:09;98692.03;;;15.66;100.00
7966;BME280;4028;43.272;26.932;2023-04-20T11:14:56;98694.00;;;15.79;100.00
7966;BME280;4028;43.272;26.932;2023-04-20T11:17:31;98693.56;;;15.75;100.00
7966;BME280;4028;43.272;26.932;2023-04-20T11:20:11;98695.41;;;15.75;100.00
7966;BME280;4028;43.272;26.932;2023-04-20T11:22:39;98679.06;;;15.63;100.00
7966;BME280;4028;43.272;26.932;2023-04-20T11:25:06;98697.16;;;15.68;100.00
7966;BME280;4028;43.272;26.932;2023-04-20T11:27:33;98683.75;;;15.61;100.00
7966;BME280;4028;43.272;26.932;2023-04-20T11:29:59;98693.19;;;15.78;100.00
7966;BME280;4028;43.272;26.932;2023-04-20T11:32:30;98692.53;;;15.76;100.00
7966;BME280;4028;43.272;26.932;2023-04-20T11:35:04;98681.97;;;15.83;100.00
7966;BME280;4028;43.272;26.932;2023-04-20T11:37:32;98677.38;;;15.77;100.00
7966;BME280;4028;43.272;26.932;2023-04-20T11:40:03;98675.25;;;15.87;100.00
7966;BME280;4028;43.272;26.932;2023-04-20T11:42:31;98683.03;;;15.89;100.00
7966;BME280;4028;43.272;26.932;2023-04-20T11:44:58;98681.19;;;15.89;100.00
7966;BME280;4028;43.272;26.932;2023-04-20T11:47:23;98673.91;;;15.98;100.00
7966;BME280;4028;43.272;26.932;2023-04-20T11:49:49;98676.75;;;15.96;100.00
7966;BME280;4028;43.272;26.932;2023-04-20T11:52:15;98669.53;;;15.75;100.00
7966;BME280;4028;43.272;26.932;2023-04-20T11:54:40;98680.88;;;15.63;100.00
7966;BME280;4028;43.272;26.932;2023-04-20T11:57:06;98679.06;;;15.48;100.00
7966;BME280;4028;43.272;26.932;2023-04-20T11:59:32;98671.72;;;15.36;100.00
7966;BME280;4028;43.272;26.932;2023-04-20T12:01:57;98670.06;;;15.34;100.00
7966;BME280;4028;43.272;26.932;2023-04-20T12:04:25;98686.72;;;15.37;100.00
7966;BME280;4028;43.272;26.932;2023-04-20T12:06:51;98679.88;;;15.49;100.00
7966;BME280;4028;43.272;26.932;2023-04-20T12:09:16;98671.69;;;15.50;100.00
7966;BME280;4028;43.272;26.932;2023-04-20T12:11:41;98678.31;;;15.54;100.00
7966;BME280;4028;43.272;26.932;2023-04-20T12:14:07;98678.44;;;15.46;100.00
7966;BME280;4028;43.272;26.932;2023-04-20T12:16:32;98673.47;;;15.43;100.00
7966;BME280;4028;43.272;26.932;2023-04-20T12:18:58;98649.13;;;15.02;100.00
7966;BME280;4028;43.272;26.932;2023-04-20T12:21:23;98668.81;;;15.30;100.00
7966;BME280;4028;43.272;26.932;2023-04-20T12:23:49;98667.22;;;15.51;100.00
7966;BME280;4028;43.272;26.932;2023-04-20T12:26:15;98668.16;;;15.79;100.00
7966;BME280;4028;43.272;26.932;2023-04-20T12:28:41;98663.16;;;15.91;100.00
7966;BME280;4028;43.272;26.932;2023-04-20T12:31:06;98650.97;;;16.03;100.00
7966;BME280;4028;43.272;26.932;2023-04-20T12:33:32;98652.81;;;16.24;100.00
7966;BME280;4028;43.272;26.932;2023-04-20T12:35:58;98648.78;;;16.35;100.00
7966;BME280;4028;43.272;26.932;2023-04-20T12:38:23;98635.31;;;16.43;100.00
7966;BME280;4028;43.272;26.932;2023-04-20T12:40:49;98637.69;;;16.59;100.00
7966;BME280;4028;43.272;26.932;2023-04-20T12:43:14;98639.56;;;16.66;100.00
7966;BME280;4028;43.272;26.932;2023-04-20T12:45:40;98637.50;;;16.89;100.00
7966;BME280;4028;43.272;26.932;2023-04-20T12:48:05;98635.34;;;17.12;100.00
7966;BME280;4028;43.272;26.932;2023-04-20T12:50:31;98633.75;;;17.25;100.00
7966;BME280;4028;43.272;26.932;2023-04-20T12:52:56;98639.06;;;17.18;100.00
7966;BME280;4028;43.272;26.932;2023-04-20T12:55:24;98634.16;;;17.15;100.00
7966;BME280;4028;43.272;26.932;2023-04-20T12:57:50;98632.66;;;17.06;100.00
7966;BME280;4028;43.272;26.932;2023-04-20T13:00:16;98630.81;;;17.06;100.00
7966;BME280;4028;43.272;26.932;2023-04-20T13:02:42;98625.97;;;16.88;100.00